sensor_id;sensor_type;location;lat;lon;timestamp;pressure;altitude;pressure_sealevel;temperature;humidity
13581;BME280;6861;46.170;7.222;2023-02-26T00:01:39;94650.25;;;7.93;47.44
13581;BME280;6861;46.170;7.222;2023-02-26T00:04:08;94660.88;;;7.97;47.52
13581;BME280;6861;46.170;7.222;2023-02-26T00:06:38;94646.25;;;8.01;47.76
13581;BME280;6861;46.170;7.222;2023-02-26T00:09:22;94655.13;;;8.00;47.82
13581;BME280;6861;46.170;7.222;2023-02-26T00:11:51;94649.91;;;8.00;47.98
13581;BME280;6861;46.170;7.222;2023-02-26T00:14:20;94655.19;;;7.95;48.24
13581;BME280;6861;46.170;7.222;2023-02-26T00:16:55;94652.13;;;7.87;48.18
13581;BME280;6861;46.170;7.222;2023-02-26T00:19:25;94651.63;;;7.85;47.75
13581;BME280;6861;46.170;7.222;2023-02-26T00:21:53;94646.44;;;7.85;47.22
13581;BME280;6861;46.170;7.222;2023-02-26T00:24:21;94647.50;;;7.84;48.20
13581;BME280;6861;46.170;7.222;2023-02-26T00:26:49;94654.81;;;7.82;47.52
13581;BME280;6861;46.170;7.222;2023-02-26T00:29:20;94652.00;;;7.79;47.19
13581;BME280;6861;46.170;7.222;2023-02-26T00:31:48;94641.88;;;7.77;48.04
13581;BME280;6861;46.170;7.222;2023-02-26T00:34:17;94650.78;;;7.71;47.66
13581;BME280;6861;46.170;7.222;2023-02-26T00:36:51;94640.66;;;7.70;47.97
13581;BME280;6861;46.170;7.222;2023-02-26T00:39:35;94648.53;;;7.65;48.31
13581;BME280;6861;46.170;7.222;2023-02-26T00:42:07;94641.28;;;7.62;48.04
13581;BME280;6861;46.170;7.222;2023-02-26T00:44:38;94644.16;;;7.60;47.52
13581;BME280;6861;46.170;7.222;2023-02-26T00:47:11;94637.91;;;7.61;47.52
13581;BME280;6861;46.170;7.222;2023-02-26T00:49:53;94631.06;;;7.65;47.53
13581;BME280;6861;46.170;7.222;2023-02-26T00:52:31;94636.22;;;7.70;46.80
13581;BME280;6861;46.170;7.222;2023-02-26T00:55:03;94642.44;;;7.74;47.10
13581;BME280;6861;46.170;7.222;2023-02-26T00:57:31;94633.19;;;7.82;47.75
13581;BME280;6861;46.170;7.222;2023-02-26T01:00:01;94634.97;;;7.86;47.68
13581;BME280;6861;46.170;7.222;2023-02-26T01:02:32;94636.16;;;7.94;46.52
13581;BME280;6861;46.170;7.222;2023-02-26T01:05:00;94629.84;;;8.00;46.92
13581;BME280;6861;46.170;7.222;2023-02-26T01:07:37;94622.75;;;8.06;46.78
13581;BME280;6861;46.170;7.222;2023-02-26T01:10:08;94624.06;;;8.03;47.23
13581;BME280;6861;46.170;7.222;2023-02-26T01:12:38;94630.84;;;8.04;46.69
13581;BME280;6861;46.170;7.222;2023-02-26T01:15:08;94619.91;;;8.02;46.26
13581;BME280;6861;46.170;7.222;2023-02-26T01:17:42;94616.31;;;7.98;46.35
13581;BME280;6861;46.170;7.222;2023-02-26T01:20:16;94612.66;;;7.99;46.77
13581;BME280;6861;46.170;7.222;2023-02-26T01:22:50;94602.03;;;7.96;46.35
13581;BME280;6861;46.170;7.222;2023-02-26T01:25:23;94609.34;;;7.94;47.35
13581;BME280;6861;46.170;7.222;2023-02-26T01:27:52;94598.94;;;7.94;46.03
13581;BME280;6861;46.170;7.222;2023-02-26T01:30:25;94598.38;;;7.97;46.85
13581;BME280;6861;46.170;7.222;2023-02-26T01:32:57;94594.72;;;7.98;47.03
13581;BME280;6861;46.170;7.222;2023-02-26T01:35:36;94594.94;;;8.01;45.81
13581;BME280;6861;46.170;7.222;2023-02-26T01:38:15;94590.50;;;8.02;46.51
13581;BME280;6861;46.170;7.222;2023-02-26T01:41:08;94578.53;;;8.01;46.40
13581;BME280;6861;46.170;7.222;2023-02-26T01:43:45;94571.00;;;7.99;46.44
13581;BME280;6861;46.170;7.222;2023-02-26T01:46:21;94570.78;;;7.96;45.69
13581;BME280;6861;46.170;7.222;2023-02-26T01:48:54;94572.31;;;7.97;45.71
13581;BME280;6861;46.170;7.222;2023-02-26T01:51:47;94565.09;;;7.94;45.61
13581;BME280;6861;46.170;7.222;2023-02-26T01:54:18;94565.91;;;7.89;46.17
13581;BME280;6861;46.170;7.222;2023-02-26T01:56:49;94559.94;;;7.88;46.20
13581;BME280;6861;46.170;7.222;2023-02-26T01:59:18;94565.44;;;7.87;46.39
13581;BME280;6861;46.170;7.222;2023-02-26T02:01:53;94557.91;;;7.85;45.64
13581;BME280;6861;46.170;7.222;2023-02-26T02:04:23;94552.41;;;7.87;46.23
13581;BME280;6861;46.170;7.222;2023-02-26T02:06:53;94550.66;;;7.82;46.28
13581;BME280;6861;46.170;7.222;2023-02-26T02:09:21;94551.69;;;7.81;46.22
13581;BME280;6861;46.170;7.222;2023-02-26T02:12:04;94528.88;;;7.78;45.99
13581;BME280;6861;46.170;7.222;2023-02-26T02:14:42;94522.09;;;7.77;46.86
13581;BME280;6861;46.170;7.222;2023-02-26T02:17:18;94529.44;;;7.75;46.23
13581;BME280;6861;46.170;7.222;2023-02-26T02:20:05;94521.91;;;7.74;45.68
13581;BME280;6861;46.170;7.222;2023-02-26T02:22:51;94510.22;;;7.71;46.81
13581;BME280;6861;46.170;7.222;2023-02-26T02:28:33;94510.91;;;7.58;46.18
13581;BME280;6861;46.170;7.222;2023-02-26T02:31:07;94512.25;;;7.55;45.84
13581;BME280;6861;46.170;7.222;2023-02-26T02:33:44;94507.31;;;7.54;45.54
13581;BME280;6861;46.170;7.222;2023-02-26T02:36:19;94483.97;;;7.49;46.62
13581;BME280;6861;46.170;7.222;2023-02-26T02:38:51;94491.28;;;7.47;46.12
13581;BME280;6861;46.170;7.222;2023-02-26T02:41:25;94498.59;;;7.45;46.72
13581;BME280;6861;46.170;7.222;2023-02-26T02:43:58;94506.41;;;7.45;45.52
13581;BME280;6861;46.170;7.222;2023-02-26T02:46:32;94508.50;;;7.43;46.23
13581;BME280;6861;46.170;7.222;2023-02-26T02:49:02;94516.59;;;7.41;46.08
13581;BME280;6861;46.170;7.222;2023-02-26T02:51:34;94500.78;;;7.38;46.76
13581;BME280;6861;46.170;7.222;2023-02-26T02:54:07;94498.16;;;7.38;45.77
13581;BME280;6861;46.170;7.222;2023-02-26T02:56:40;94498.16;;;7.38;45.73
13581;BME280;6861;46.170;7.222;2023-02-26T02:59:15;94501.31;;;7.35;45.62
13581;BME280;6861;46.170;7.222;2023-02-26T03:01:49;94504.97;;;7.34;46.74
13581;BME280;6861;46.170;7.222;2023-02-26T03:04:18;94496.19;;;7.30;45.81
13581;BME280;6861;46.170;7.222;2023-02-26T03:06:47;94498.84;;;7.24;46.44
13581;BME280;6861;46.170;7.222;2023-02-26T03:09:15;94501.50;;;7.19;46.50
13581;BME280;6861;46.170;7.222;2023-02-26T03:11:43;94483.38;;;7.14;45.55
13581;BME280;6861;46.170;7.222;2023-02-26T03:14:11;94469.88;;;7.12;45.78
13581;BME280;6861;46.170;7.222;2023-02-26T03:17:07;94472.53;;;7.07;45.94
13581;BME280;6861;46.170;7.222;2023-02-26T03:19:46;94450.44;;;7.05;45.32
13581;BME280;6861;46.170;7.222;2023-02-26T03:22:19;94457.25;;;7.01;45.88
13581;BME280;6861;46.170;7.222;2023-02-26T03:24:54;94460.91;;;7.00;45.82
13581;BME280;6861;46.170;7.222;2023-02-26T03:27:26;94459.66;;;6.97;45.66
13581;BME280;6861;46.170;7.222;2023-02-26T03:29:59;94463.03;;;6.98;45.72
13581;BME280;6861;46.170;7.222;2023-02-26T03:32:35;94462.75;;;6.99;45.48
13581;BME280;6861;46.170;7.222;2023-02-26T03:35:10;94476.72;;;7.03;45.30
13581;BME280;6861;46.170;7.222;2023-02-26T03:37:44;94483.00;;;7.02;46.04
13581;BME280;6861;46.170;7.222;2023-02-26T03:40:16;94467.44;;;6.97;45.44
13581;BME280;6861;46.170;7.222;2023-02-26T03:42:48;94450.38;;;6.91;45.80
13581;BME280;6861;46.170;7.222;2023-02-26T03:45:23;94445.25;;;6.86;44.93
13581;BME280;6861;46.170;7.222;2023-02-26T03:47:54;94466.59;;;6.83;45.53
13581;BME280;6861;46.170;7.222;2023-02-26T03:50:25;94457.75;;;6.84;44.86
13581;BME280;6861;46.170;7.222;2023-02-26T03:52:57;94447.34;;;6.84;45.33
13581;BME280;6861;46.170;7.222;2023-02-26T03:55:30;94459.56;;;6.83;44.44
13581;BME280;6861;46.170;7.222;2023-02-26T03:58:01;94459.84;;;6.82;44.39
13581;BME280;6861;46.170;7.222;2023-02-26T04:00:30;94459.84;;;6.82;44.71
13581;BME280;6861;46.170;7.222;2023-02-26T04:03:04;94453.59;;;6.83;45.33
13581;BME280;6861;46.170;7.222;2023-02-26T04:05:37;94435.94;;;6.80;44.63
13581;BME280;6861;46.170;7.222;2023-02-26T04:08:08;94436.22;;;6.78;44.92
13581;BME280;6861;46.170;7.222;2023-02-26T04:10:41;94433.41;;;6.75;44.39
13581;BME280;6861;46.170;7.222;2023-02-26T04:13:10;94432.63;;;6.74;44.61
13581;BME280;6861;46.170;7.222;2023-02-26T04:15:38;94429.75;;;6.76;44.04
13581;BME280;6861;46.170;7.222;2023-02-26T04:18:08;94423.78;;;6.75;44.44
13581;BME280;6861;46.170;7.222;2023-02-26T04:20:36;94427.66;;;6.78;44.19
13581;BME280;6861;46.170;7.222;2023-02-26T04:23:04;94438.06;;;6.78;43.84
13581;BME280;6861;46.170;7.222;2023-02-26T04:25:32;94424.84;;;6.74;43.51
13581;BME280;6861;46.170;7.222;2023-02-26T04:28:00;94438.13;;;6.73;43.88
13581;BME280;6861;46.170;7.222;2023-02-26T04:30:28;94449.56;;;6.72;43.45
13581;BME280;6861;46.170;7.222;2023-02-26T04:32:57;94430.88;;;6.70;44.08
13581;BME280;6861;46.170;7.222;2023-02-26T04:35:26;94425.94;;;6.68;43.77
13581;BME280;6861;46.170;7.222;2023-02-26T04:37:54;94423.34;;;6.68;44.52
13581;BME280;6861;46.170;7.222;2023-02-26T04:40:22;94409.31;;;6.69;43.95
13581;BME280;6861;46.170;7.222;2023-02-26T04:42:50;94397.03;;;6.75;43.50
13581;BME280;6861;46.170;7.222;2023-02-26T04:45:18;94413.63;;;6.79;42.22
13581;BME280;6861;46.170;7.222;2023-02-26T04:47:46;94415.59;;;6.87;41.82
13581;BME280;6861;46.170;7.222;2023-02-26T04:50:16;94417.16;;;6.88;41.81
13581;BME280;6861;46.170;7.222;2023-02-26T04:52:45;94407.16;;;6.95;42.10
13581;BME280;6861;46.170;7.222;2023-02-26T04:55:13;94432.19;;;6.91;41.52
13581;BME280;6861;46.170;7.222;2023-02-26T04:57:41;94437.94;;;6.88;41.85
13581;BME280;6861;46.170;7.222;2023-02-26T05:00:10;94427.59;;;6.83;41.75
13581;BME280;6861;46.170;7.222;2023-02-26T05:02:38;94420.34;;;6.80;42.91
13581;BME280;6861;46.170;7.222;2023-02-26T05:05:07;94406.31;;;6.81;41.26
13581;BME280;6861;46.170;7.222;2023-02-26T05:07:35;94400.84;;;6.82;41.81
13581;BME280;6861;46.170;7.222;2023-02-26T05:10:06;94413.06;;;6.82;41.87
13581;BME280;6861;46.170;7.222;2023-02-26T05:12:35;94422.69;;;6.81;41.24
13581;BME280;6861;46.170;7.222;2023-02-26T05:15:04;94413.63;;;6.79;41.36
13581;BME280;6861;46.170;7.222;2023-02-26T05:17:32;94422.47;;;6.78;41.55
13581;BME280;6861;46.170;7.222;2023-02-26T05:20:02;94410.31;;;6.73;41.97
13581;BME280;6861;46.170;7.222;2023-02-26T05:22:30;94419.69;;;6.69;41.71
13581;BME280;6861;46.170;7.222;2023-02-26T05:24:58;94414.72;;;6.73;40.58
13581;BME280;6861;46.170;7.222;2023-02-26T05:27:28;94428.22;;;6.75;41.59
13581;BME280;6861;46.170;7.222;2023-02-26T05:29:56;94426.88;;;6.77;41.56
13581;BME280;6861;46.170;7.222;2023-02-26T05:32:24;94422.47;;;6.78;40.88
13581;BME280;6861;46.170;7.222;2023-02-26T05:34:52;94443.53;;;6.76;40.40
13581;BME280;6861;46.170;7.222;2023-02-26T05:37:20;94428.22;;;6.75;40.32
13581;BME280;6861;46.170;7.222;2023-02-26T05:39:48;94424.06;;;6.74;40.79
13581;BME280;6861;46.170;7.222;2023-02-26T05:42:16;94440.44;;;6.74;40.22
13581;BME280;6861;46.170;7.222;2023-02-26T05:44:45;94448.00;;;6.71;39.98
13581;BME280;6861;46.170;7.222;2023-02-26T05:47:13;94435.84;;;6.66;40.37
13581;BME280;6861;46.170;7.222;2023-02-26T05:49:41;94429.66;;;6.62;40.54
13581;BME280;6861;46.170;7.222;2023-02-26T05:52:09;94432.81;;;6.59;40.65
13581;BME280;6861;46.170;7.222;2023-02-26T05:54:37;94438.28;;;6.57;41.06
13581;BME280;6861;46.170;7.222;2023-02-26T05:57:05;94462.72;;;6.56;41.29
13581;BME280;6861;46.170;7.222;2023-02-26T05:59:33;94447.69;;;6.53;40.25
13581;BME280;6861;46.170;7.222;2023-02-26T06:02:03;94438.59;;;6.51;41.55
13581;BME280;6861;46.170;7.222;2023-02-26T06:04:31;94437.13;;;6.45;41.27
13581;BME280;6861;46.170;7.222;2023-02-26T06:06:59;94429.88;;;6.42;41.55
13581;BME280;6861;46.170;7.222;2023-02-26T06:09:27;94443.69;;;6.37;40.88
13581;BME280;6861;46.170;7.222;2023-02-26T06:11:55;94446.56;;;6.36;41.76
13581;BME280;6861;46.170;7.222;2023-02-26T06:14:24;94453.06;;;6.33;41.87
13581;BME280;6861;46.170;7.222;2023-02-26T06:16:52;94453.63;;;6.30;41.25
13581;BME280;6861;46.170;7.222;2023-02-26T06:19:21;94457.81;;;6.26;41.31
13581;BME280;6861;46.170;7.222;2023-02-26T06:21:49;94445.66;;;6.21;42.04
13581;BME280;6861;46.170;7.222;2023-02-26T06:24:17;94444.66;;;6.17;42.21
13581;BME280;6861;46.170;7.222;2023-02-26T06:26:45;94451.94;;;6.15;42.09
13581;BME280;6861;46.170;7.222;2023-02-26T06:29:13;94458.44;;;6.13;41.88
13581;BME280;6861;46.170;7.222;2023-02-26T06:31:43;94475.56;;;6.14;41.25
13581;BME280;6861;46.170;7.222;2023-02-26T06:34:12;94478.44;;;6.12;41.57
13581;BME280;6861;46.170;7.222;2023-02-26T06:36:42;94481.31;;;6.11;41.78
13581;BME280;6861;46.170;7.222;2023-02-26T06:39:10;94478.22;;;6.09;42.47
13581;BME280;6861;46.170;7.222;2023-02-26T06:41:39;94478.78;;;6.06;42.62
13581;BME280;6861;46.170;7.222;2023-02-26T06:44:08;94482.19;;;6.01;42.16
13581;BME280;6861;46.170;7.222;2023-02-26T06:46:37;94472.59;;;6.02;42.73
13581;BME280;6861;46.170;7.222;2023-02-26T06:49:05;94486.63;;;6.01;42.43
13581;BME280;6861;46.170;7.222;2023-02-26T06:51:33;94497.00;;;6.01;42.17
13581;BME280;6861;46.170;7.222;2023-02-26T06:54:03;94499.31;;;6.02;42.54
13581;BME280;6861;46.170;7.222;2023-02-26T06:56:31;94473.13;;;5.99;42.47
13581;BME280;6861;46.170;7.222;2023-02-26T06:58:59;94482.97;;;6.02;41.78
13581;BME280;6861;46.170;7.222;2023-02-26T07:01:28;94493.34;;;6.02;41.79
13581;BME280;6861;46.170;7.222;2023-02-26T07:03:57;94494.13;;;6.02;41.76
13581;BME280;6861;46.170;7.222;2023-02-26T07:06:25;94480.31;;;6.07;41.69
13581;BME280;6861;46.170;7.222;2023-02-26T07:08:54;94484.97;;;6.10;41.55
13581;BME280;6861;46.170;7.222;2023-02-26T07:11:24;94479.44;;;6.16;42.07
13581;BME280;6861;46.170;7.222;2023-02-26T07:13:52;94481.22;;;6.21;41.31
13581;BME280;6861;46.170;7.222;2023-02-26T07:16:20;94497.28;;;6.28;41.91
13581;BME280;6861;46.170;7.222;2023-02-26T07:18:49;94481.59;;;6.38;41.28
13581;BME280;6861;46.170;7.222;2023-02-26T07:21:17;94498.41;;;6.46;40.66
13581;BME280;6861;46.170;7.222;2023-02-26T07:23:45;94497.88;;;6.49;41.38
13581;BME280;6861;46.170;7.222;2023-02-26T07:26:13;94478.09;;;6.53;40.57
13581;BME280;6861;46.170;7.222;2023-02-26T07:28:44;94493.91;;;6.56;41.02
13581;BME280;6861;46.170;7.222;2023-02-26T07:31:12;94493.84;;;6.62;40.63
13581;BME280;6861;46.170;7.222;2023-02-26T07:33:42;94484.94;;;6.68;40.10
13581;BME280;6861;46.170;7.222;2023-02-26T07:36:10;94485.91;;;6.77;40.66
13581;BME280;6861;46.170;7.222;2023-02-26T07:38:38;94484.50;;;6.84;40.05
13581;BME280;6861;46.170;7.222;2023-02-26T07:41:06;94497.69;;;6.93;39.41
13581;BME280;6861;46.170;7.222;2023-02-26T07:43:34;94485.59;;;7.02;39.60
13581;BME280;6861;46.170;7.222;2023-02-26T07:46:04;94493.00;;;7.14;39.43
13581;BME280;6861;46.170;7.222;2023-02-26T07:48:32;94493.94;;;7.23;38.81
13581;BME280;6861;46.170;7.222;2023-02-26T07:51:00;94485.78;;;7.30;39.37
13581;BME280;6861;46.170;7.222;2023-02-26T07:53:28;94483.38;;;7.33;39.52
13581;BME280;6861;46.170;7.222;2023-02-26T07:55:56;94484.50;;;7.27;39.49
13581;BME280;6861;46.170;7.222;2023-02-26T07:58:24;94490.53;;;7.22;39.35
13581;BME280;6861;46.170;7.222;2023-02-26T08:00:52;94486.47;;;7.16;39.44
13581;BME280;6861;46.170;7.222;2023-02-26T08:03:22;94483.91;;;7.11;38.97
13581;BME280;6861;46.170;7.222;2023-02-26T08:05:49;94492.00;;;7.10;39.08
13581;BME280;6861;46.170;7.222;2023-02-26T08:08:17;94492.78;;;7.10;39.15
13581;BME280;6861;46.170;7.222;2023-02-26T08:10:45;94475.63;;;7.09;39.69
13581;BME280;6861;46.170;7.222;2023-02-26T08:13:13;94484.25;;;7.05;39.52
13581;BME280;6861;46.170;7.222;2023-02-26T08:15:42;94461.69;;;7.00;38.95
13581;BME280;6861;46.170;7.222;2023-02-26T08:18:10;94469.09;;;7.12;38.93
13581;BME280;6861;46.170;7.222;2023-02-26T08:20:40;94462.72;;;7.23;38.52
13581;BME280;6861;46.170;7.222;2023-02-26T08:23:08;94472.22;;;7.33;39.04
13581;BME280;6861;46.170;7.222;2023-02-26T08:25:36;94455.53;;;7.34;37.97
13581;BME280;6861;46.170;7.222;2023-02-26T08:28:04;94457.25;;;7.43;37.61
13581;BME280;6861;46.170;7.222;2023-02-26T08:30:32;94446.00;;;7.48;38.20
13581;BME280;6861;46.170;7.222;2023-02-26T08:33:00;94465.13;;;7.57;37.92
13581;BME280;6861;46.170;7.222;2023-02-26T08:35:28;94456.69;;;7.65;37.73
13581;BME280;6861;46.170;7.222;2023-02-26T08:37:58;94454.56;;;7.67;36.89
13581;BME280;6861;46.170;7.222;2023-02-26T08:40:26;94457.09;;;7.72;37.12
13581;BME280;6861;46.170;7.222;2023-02-26T08:42:54;94441.88;;;7.79;37.46
13581;BME280;6861;46.170;7.222;2023-02-26T08:45:25;94462.63;;;7.84;36.51
13581;BME280;6861;46.170;7.222;2023-02-26T08:47:53;94448.47;;;7.90;37.42
13581;BME280;6861;46.170;7.222;2023-02-26T08:50:23;94461.19;;;7.92;35.93
13581;BME280;6861;46.170;7.222;2023-02-26T08:52:52;94461.47;;;7.90;36.48
13581;BME280;6861;46.170;7.222;2023-02-26T08:55:22;94469.00;;;7.92;36.87
13581;BME280;6861;46.170;7.222;2023-02-26T08:57:50;94473.38;;;7.97;36.79
13581;BME280;6861;46.170;7.222;2023-02-26T09:00:19;94462.47;;;7.95;36.12
13581;BME280;6861;46.170;7.222;2023-02-26T09:02:47;94468.16;;;7.97;36.10
13581;BME280;6861;46.170;7.222;2023-02-26T09:05:16;94462.78;;;8.07;36.40
13581;BME280;6861;46.170;7.222;2023-02-26T09:07:44;94464.53;;;8.11;35.94
13581;BME280;6861;46.170;7.222;2023-02-26T09:10:13;94470.72;;;8.15;35.09
13581;BME280;6861;46.170;7.222;2023-02-26T09:12:43;94468.81;;;8.21;36.15
13581;BME280;6861;46.170;7.222;2023-02-26T09:15:11;94460.78;;;8.36;34.78
13581;BME280;6861;46.170;7.222;2023-02-26T09:17:40;94483.41;;;8.54;35.59
13581;BME280;6861;46.170;7.222;2023-02-26T09:20:10;94473.84;;;8.64;34.87
13581;BME280;6861;46.170;7.222;2023-02-26T09:22:39;94457.59;;;8.67;34.80
13581;BME280;6861;46.170;7.222;2023-02-26T09:25:07;94479.16;;;8.59;35.09
13581;BME280;6861;46.170;7.222;2023-02-26T09:27:36;94476.22;;;8.46;34.65
13581;BME280;6861;46.170;7.222;2023-02-26T09:30:06;94475.41;;;8.32;34.44
13581;BME280;6861;46.170;7.222;2023-02-26T09:32:34;94481.84;;;8.21;34.35
13581;BME280;6861;46.170;7.222;2023-02-26T09:35:04;94483.97;;;8.19;34.79
13581;BME280;6861;46.170;7.222;2023-02-26T09:37:32;94477.19;;;8.18;35.12
13581;BME280;6861;46.170;7.222;2023-02-26T09:40:00;94491.00;;;8.18;35.19
13581;BME280;6861;46.170;7.222;2023-02-26T09:42:43;94483.31;;;8.27;34.83
13581;BME280;6861;46.170;7.222;2023-02-26T09:45:24;94480.63;;;8.32;33.98
13581;BME280;6861;46.170;7.222;2023-02-26T09:47:53;94473.84;;;8.31;34.75
13581;BME280;6861;46.170;7.222;2023-02-26T09:50:24;94480.75;;;8.41;34.89
13581;BME280;6861;46.170;7.222;2023-02-26T09:52:57;94475.09;;;8.52;34.09
13581;BME280;6861;46.170;7.222;2023-02-26T09:55:30;94480.69;;;8.60;34.35
13581;BME280;6861;46.170;7.222;2023-02-26T09:58:00;94488.22;;;8.47;33.88
13581;BME280;6861;46.170;7.222;2023-02-26T10:00:35;94478.94;;;8.41;34.62
13581;BME280;6861;46.170;7.222;2023-02-26T10:03:17;94485.69;;;8.42;34.34
13581;BME280;6861;46.170;7.222;2023-02-26T10:06:05;94483.09;;;8.42;33.63
13581;BME280;6861;46.170;7.222;2023-02-26T10:08:45;94490.63;;;8.44;33.91
13581;BME280;6861;46.170;7.222;2023-02-26T10:11:20;94485.19;;;8.40;34.51
13581;BME280;6861;46.170;7.222;2023-02-26T10:13:53;94482.59;;;8.40;34.11
13581;BME280;6861;46.170;7.222;2023-02-26T10:16:27;94478.94;;;8.41;34.34
13581;BME280;6861;46.170;7.222;2023-02-26T10:19:03;94490.91;;;8.42;34.10
13581;BME280;6861;46.170;7.222;2023-02-26T10:21:37;94493.03;;;8.40;34.02
13581;BME280;6861;46.170;7.222;2023-02-26T10:24:11;94488.94;;;8.34;33.33
13581;BME280;6861;46.170;7.222;2023-02-26T10:26:44;94490.78;;;8.34;34.03
13581;BME280;6861;46.170;7.222;2023-02-26T10:29:18;94488.81;;;8.26;33.60
13581;BME280;6861;46.170;7.222;2023-02-26T10:32:01;94486.47;;;8.24;33.93
13581;BME280;6861;46.170;7.222;2023-02-26T10:34:34;94512.53;;;8.24;33.90
13581;BME280;6861;46.170;7.222;2023-02-26T10:37:12;94509.72;;;8.20;34.09
13581;BME280;6861;46.170;7.222;2023-02-26T10:39:46;94508.53;;;8.13;33.81
13581;BME280;6861;46.170;7.222;2023-02-26T10:42:20;94517.00;;;8.05;34.41
13581;BME280;6861;46.170;7.222;2023-02-26T10:44:57;94515.53;;;7.99;33.59
13581;BME280;6861;46.170;7.222;2023-02-26T10:47:36;94512.91;;;7.99;33.56
13581;BME280;6861;46.170;7.222;2023-02-26T10:50:12;94508.28;;;7.96;32.98
13581;BME280;6861;46.170;7.222;2023-02-26T10:52:42;94523.91;;;7.96;33.69
13581;BME280;6861;46.170;7.222;2023-02-26T10:55:38;94523.47;;;7.88;32.94
13581;BME280;6861;46.170;7.222;2023-02-26T10:58:11;94519.63;;;7.86;34.23
13581;BME280;6861;46.170;7.222;2023-02-26T11:00:41;94521.94;;;7.87;33.55
13581;BME280;6861;46.170;7.222;2023-02-26T11:03:14;94520.03;;;7.93;33.81
13581;BME280;6861;46.170;7.222;2023-02-26T11:05:43;94525.88;;;8.04;32.93
13581;BME280;6861;46.170;7.222;2023-02-26T11:08:14;94521.63;;;8.08;33.39
13581;BME280;6861;46.170;7.222;2023-02-26T11:10:47;94529.94;;;8.10;33.41
13581;BME280;6861;46.170;7.222;2023-02-26T11:13:16;94523.97;;;8.09;33.81
13581;BME280;6861;46.170;7.222;2023-02-26T11:15:46;94524.38;;;8.16;33.48
13581;BME280;6861;46.170;7.222;2023-02-26T11:18:22;94538.09;;;8.22;32.98
13581;BME280;6861;46.170;7.222;2023-02-26T11:20:53;94529.44;;;8.27;33.06
13581;BME280;6861;46.170;7.222;2023-02-26T11:23:25;94532.72;;;8.32;33.14
13581;BME280;6861;46.170;7.222;2023-02-26T11:25:58;94536.41;;;8.31;32.39
13581;BME280;6861;46.170;7.222;2023-02-26T11:28:31;94531.19;;;8.31;33.34
13581;BME280;6861;46.170;7.222;2023-02-26T11:31:04;94525.84;;;8.41;32.71
13581;BME280;6861;46.170;7.222;2023-02-26T11:33:37;94534.75;;;8.54;32.68
13581;BME280;6861;46.170;7.222;2023-02-26T11:36:08;94530.03;;;8.70;33.10
13581;BME280;6861;46.170;7.222;2023-02-26T11:38:37;94533.44;;;8.84;33.16
13581;BME280;6861;46.170;7.222;2023-02-26T11:41:06;94542.63;;;8.95;32.29
13581;BME280;6861;46.170;7.222;2023-02-26T11:43:36;94532.59;;;9.02;32.73
13581;BME280;6861;46.170;7.222;2023-02-26T11:46:11;94546.13;;;9.04;32.62
13581;BME280;6861;46.170;7.222;2023-02-26T11:48:43;94548.72;;;9.04;33.04
13581;BME280;6861;46.170;7.222;2023-02-26T11:51:14;94556.63;;;8.99;32.25
13581;BME280;6861;46.170;7.222;2023-02-26T11:53:48;94562.81;;;9.03;32.50
13581;BME280;6861;46.170;7.222;2023-02-26T11:56:25;94564.38;;;9.04;32.58
13581;BME280;6861;46.170;7.222;2023-02-26T11:58:53;94553.94;;;9.04;32.63
13581;BME280;6861;46.170;7.222;2023-02-26T12:01:26;94562.72;;;9.08;32.57
13581;BME280;6861;46.170;7.222;2023-02-26T12:03:58;94569.00;;;9.07;33.06
13581;BME280;6861;46.170;7.222;2023-02-26T12:06:28;94564.38;;;9.04;32.47
13581;BME280;6861;46.170;7.222;2023-02-26T12:08:56;94580.59;;;9.01;32.68
13581;BME280;6861;46.170;7.222;2023-02-26T12:11:46;94579.34;;;8.99;32.64
13581;BME280;6861;46.170;7.222;2023-02-26T12:14:32;94586.19;;;8.95;32.53
13581;BME280;6861;46.170;7.222;2023-02-26T12:17:11;94597.00;;;8.88;33.22
13581;BME280;6861;46.170;7.222;2023-02-26T12:19:49;94585.59;;;8.84;32.72
13581;BME280;6861;46.170;7.222;2023-02-26T12:22:39;94592.34;;;8.85;32.96
13581;BME280;6861;46.170;7.222;2023-02-26T12:25:34;94586.56;;;8.88;33.66
13581;BME280;6861;46.170;7.222;2023-02-26T12:31:20;94601.06;;;8.94;33.84
13581;BME280;6861;46.170;7.222;2023-02-26T12:34:02;94597.97;;;8.92;33.11
13581;BME280;6861;46.170;7.222;2023-02-26T12:36:47;94605.31;;;8.90;33.31
13581;BME280;6861;46.170;7.222;2023-02-26T12:39:29;94608.97;;;8.89;33.62
13581;BME280;6861;46.170;7.222;2023-02-26T12:42:09;94599.59;;;8.88;33.99
13581;BME280;6861;46.170;7.222;2023-02-26T12:44:54;94614.19;;;8.89;34.24
13581;BME280;6861;46.170;7.222;2023-02-26T12:47:33;94616.31;;;8.87;33.37
13581;BME280;6861;46.170;7.222;2023-02-26T12:50:19;94622.59;;;8.86;34.40
13581;BME280;6861;46.170;7.222;2023-02-26T12:52:58;94625.78;;;8.83;33.90
13581;BME280;6861;46.170;7.222;2023-02-26T12:55:34;94634.25;;;8.75;34.93
13581;BME280;6861;46.170;7.222;2023-02-26T12:58:20;94624.00;;;8.65;34.28
13581;BME280;6861;46.170;7.222;2023-02-26T13:01:18;94625.63;;;8.61;34.42
13581;BME280;6861;46.170;7.222;2023-02-26T13:07:15;94632.63;;;8.46;35.29
13581;BME280;6861;46.170;7.222;2023-02-26T13:09:55;94641.50;;;8.45;35.08
13581;BME280;6861;46.170;7.222;2023-02-26T13:12:35;94646.50;;;8.42;35.17
13581;BME280;6861;46.170;7.222;2023-02-26T13:15:18;94646.28;;;8.38;35.44
13581;BME280;6861;46.170;7.222;2023-02-26T13:17:57;94642.34;;;8.41;35.47
13581;BME280;6861;46.170;7.222;2023-02-26T13:20:28;94637.84;;;8.46;35.17
13581;BME280;6861;46.170;7.222;2023-02-26T13:23:00;94634.59;;;8.54;34.49
13581;BME280;6861;46.170;7.222;2023-02-26T13:25:35;94634.22;;;8.61;34.91
13581;BME280;6861;46.170;7.222;2023-02-26T13:28:10;94631.53;;;8.66;34.31
13581;BME280;6861;46.170;7.222;2023-02-26T13:30:48;94627.56;;;8.69;35.15
13581;BME280;6861;46.170;7.222;2023-02-26T13:33:19;94638.75;;;8.69;34.72
13581;BME280;6861;46.170;7.222;2023-02-26T13:35:48;94636.75;;;8.66;34.09
13581;BME280;6861;46.170;7.222;2023-02-26T13:38:25;94636.66;;;8.71;33.87
13581;BME280;6861;46.170;7.222;2023-02-26T13:41:04;94636.00;;;8.79;33.77
13581;BME280;6861;46.170;7.222;2023-02-26T13:43:49;94622.69;;;8.81;33.80
13581;BME280;6861;46.170;7.222;2023-02-26T13:46:29;94630.16;;;8.69;34.43
13581;BME280;6861;46.170;7.222;2023-02-26T13:49:03;94638.59;;;8.66;34.41
13581;BME280;6861;46.170;7.222;2023-02-26T13:51:36;94640.09;;;8.67;34.47
13581;BME280;6861;46.170;7.222;2023-02-26T13:54:07;94633.66;;;8.64;34.16
13581;BME280;6861;46.170;7.222;2023-02-26T13:56:52;94639.06;;;8.68;34.45
13581;BME280;6861;46.170;7.222;2023-02-26T13:59:51;94628.63;;;8.68;34.80